sensor_id;sensor_type;location;lat;lon;timestamp;pressure;altitude;pressure_sealevel;temperature;humidity
40574;BME280;26283;49.020;8.644;2022-12-07T00:00:48;99417.13;;;8.15;63.55
40574;BME280;26283;49.020;8.644;2022-12-07T00:03:13;99421.44;;;8.16;63.56
40574;BME280;26283;49.020;8.644;2022-12-07T00:05:39;99426.81;;;8.16;63.56
40574;BME280;26283;49.020;8.644;2022-12-07T00:08:04;99418.97;;;8.14;63.57
40574;BME280;26283;49.020;8.644;2022-12-07T00:10:29;99414.44;;;8.15;63.58
40574;BME280;26283;49.020;8.644;2022-12-07T00:12:55;99420.63;;;8.15;63.56
40574;BME280;26283;49.020;8.644;2022-12-07T00:15:20;99414.44;;;8.15;63.56
40574;BME280;26283;49.020;8.644;2022-12-07T00:17:45;99412.56;;;8.15;63.55
40574;BME280;26283;49.020;8.644;2022-12-07T00:20:11;99409.06;;;8.15;63.58
40574;BME280;26283;49.020;8.644;2022-12-07T00:22:36;99417.94;;;8.15;63.56
40574;BME280;26283;49.020;8.644;2022-12-07T00:25:02;99422.28;;;8.16;63.56
40574;BME280;26283;49.020;8.644;2022-12-07T00:27:27;99415.25;;;8.15;63.56
40574;BME280;26283;49.020;8.644;2022-12-07T00:29:52;99417.94;;;8.15;63.56
40574;BME280;26283;49.020;8.644;2022-12-07T00:32:18;99415.25;;;8.15;63.57
40574;BME280;26283;49.020;8.644;2022-12-07T00:34:43;99415.25;;;8.15;63.57
40574;BME280;26283;49.020;8.644;2022-12-07T00:37:09;99414.44;;;8.15;63.58
40574;BME280;26283;49.020;8.644;2022-12-07T00:39:34;99417.94;;;8.15;63.58
40574;BME280;26283;49.020;8.644;2022-12-07T00:41:59;99415.25;;;8.15;63.58
40574;BME280;26283;49.020;8.644;2022-12-07T00:44:25;99410.91;;;8.14;63.59
40574;BME280;26283;49.020;8.644;2022-12-07T00:46:50;99412.78;;;8.14;63.58
40574;BME280;26283;49.020;8.644;2022-12-07T00:49:15;99414.44;;;8.15;63.59
40574;BME280;26283;49.020;8.644;2022-12-07T00:51:41;99408.22;;;8.14;63.58
40574;BME280;26283;49.020;8.644;2022-12-07T00:54:06;99413.59;;;8.14;63.58
40574;BME280;26283;49.020;8.644;2022-12-07T00:56:32;99411.75;;;8.15;63.59
40574;BME280;26283;49.020;8.644;2022-12-07T00:58:59;99408.22;;;8.14;63.59
40574;BME280;26283;49.020;8.644;2022-12-07T01:01:27;99411.75;;;8.15;63.59
40574;BME280;26283;49.020;8.644;2022-12-07T01:03:52;99413.59;;;8.14;63.58
40574;BME280;26283;49.020;8.644;2022-12-07T01:06:20;99417.94;;;8.15;63.58
40574;BME280;26283;49.020;8.644;2022-12-07T01:08:45;99418.12;;;8.14;63.60
40574;BME280;26283;49.020;8.644;2022-12-07T01:11:14;99416.28;;;8.14;63.61
40574;BME280;26283;49.020;8.644;2022-12-07T01:13:40;99412.78;;;8.14;63.62
40574;BME280;26283;49.020;8.644;2022-12-07T01:16:07;99412.78;;;8.14;63.62
40574;BME280;26283;49.020;8.644;2022-12-07T01:18:35;99410.91;;;8.14;63.62
40574;BME280;26283;49.020;8.644;2022-12-07T01:21:22;99407.41;;;8.14;63.62
40574;BME280;26283;49.020;8.644;2022-12-07T01:23:48;99408.44;;;8.13;63.64
40574;BME280;26283;49.020;8.644;2022-12-07T01:26:17;99410.09;;;8.14;63.59
40574;BME280;26283;49.020;8.644;2022-12-07T01:28:43;99409.06;;;8.15;63.60
40574;BME280;26283;49.020;8.644;2022-12-07T01:31:11;99409.25;;;8.13;63.62
40574;BME280;26283;49.020;8.644;2022-12-07T01:33:38;99425.16;;;8.15;63.63
40574;BME280;26283;49.020;8.644;2022-12-07T01:36:13;99427.03;;;8.14;63.63
40574;BME280;26283;49.020;8.644;2022-12-07T01:38:39;99430.72;;;8.13;63.64
40574;BME280;26283;49.020;8.644;2022-12-07T01:41:06;99417.31;;;8.13;63.62
40574;BME280;26283;49.020;8.644;2022-12-07T01:43:33;99420.00;;;8.13;63.62
40574;BME280;26283;49.020;8.644;2022-12-07T01:45:59;99422.69;;;8.13;63.62
40574;BME280;26283;49.020;8.644;2022-12-07T01:48:32;99424.34;;;8.14;63.63
40574;BME280;26283;49.020;8.644;2022-12-07T01:51:02;99420.81;;;8.14;63.62
40574;BME280;26283;49.020;8.644;2022-12-07T01:53:29;99422.69;;;8.13;63.61
40574;BME280;26283;49.020;8.644;2022-12-07T01:55:56;99412.78;;;8.14;63.61
40574;BME280;26283;49.020;8.644;2022-12-07T01:58:24;99418.97;;;8.14;63.61
40574;BME280;26283;49.020;8.644;2022-12-07T02:00:50;99410.28;;;8.12;63.62
40574;BME280;26283;49.020;8.644;2022-12-07T02:03:20;99425.38;;;8.13;63.63
40574;BME280;26283;49.020;8.644;2022-12-07T02:05:47;99421.84;;;8.13;63.63
40574;BME280;26283;49.020;8.644;2022-12-07T02:08:14;99413.78;;;8.13;63.63
40574;BME280;26283;49.020;8.644;2022-12-07T02:10:40;99412.97;;;8.12;63.62
40574;BME280;26283;49.020;8.644;2022-12-07T02:13:18;99410.28;;;8.12;63.63
40574;BME280;26283;49.020;8.644;2022-12-07T02:21:41;99392.53;;;8.11;63.62
40574;BME280;26283;49.020;8.644;2022-12-07T02:29:59;99390.87;;;8.10;63.65
40574;BME280;26283;49.020;8.644;2022-12-07T02:32:48;99385.50;;;8.10;63.70
40574;BME280;26283;49.020;8.644;2022-12-07T02:35:33;99384.66;;;8.10;63.67
40574;BME280;26283;49.020;8.644;2022-12-07T02:38:18;99383.84;;;8.09;63.69
40574;BME280;26283;49.020;8.644;2022-12-07T02:40:53;99396.22;;;8.10;63.71
40574;BME280;26283;49.020;8.644;2022-12-07T02:43:23;99393.75;;;8.09;63.71
40574;BME280;26283;49.020;8.644;2022-12-07T02:45:51;99400.13;;;8.08;63.73
40574;BME280;26283;49.020;8.644;2022-12-07T02:48:18;99399.13;;;8.09;63.75
40574;BME280;26283;49.020;8.644;2022-12-07T02:50:48;99395.59;;;8.08;63.75
40574;BME280;26283;49.020;8.644;2022-12-07T03:01:25;99384.84;;;8.08;63.72
40574;BME280;26283;49.020;8.644;2022-12-07T03:06:50;99384.84;;;8.08;63.75
40574;BME280;26283;49.020;8.644;2022-12-07T03:09:28;99376.81;;;8.08;63.72
40574;BME280;26283;49.020;8.644;2022-12-07T03:12:10;99377.63;;;8.09;63.74
40574;BME280;26283;49.020;8.644;2022-12-07T03:14:47;99371.44;;;8.08;63.74
40574;BME280;26283;49.020;8.644;2022-12-07T03:17:23;99371.44;;;8.08;63.73
40574;BME280;26283;49.020;8.644;2022-12-07T03:19:51;99366.06;;;8.08;63.73
40574;BME280;26283;49.020;8.644;2022-12-07T03:22:19;99366.91;;;8.09;63.74
40574;BME280;26283;49.020;8.644;2022-12-07T03:24:57;99360.72;;;8.08;63.74
40574;BME280;26283;49.020;8.644;2022-12-07T03:27:27;99352.66;;;8.08;63.77
40574;BME280;26283;49.020;8.644;2022-12-07T03:30:07;99355.34;;;8.08;63.74
40574;BME280;26283;49.020;8.644;2022-12-07T03:32:59;99352.66;;;8.08;63.76
40574;BME280;26283;49.020;8.644;2022-12-07T03:35:49;99356.16;;;8.09;63.74
40574;BME280;26283;49.020;8.644;2022-12-07T03:38:21;99361.53;;;8.09;63.75
40574;BME280;26283;49.020;8.644;2022-12-07T03:41:23;99367.09;;;8.07;63.73
40574;BME280;26283;49.020;8.644;2022-12-07T03:43:49;99366.28;;;8.07;63.78
40574;BME280;26283;49.020;8.644;2022-12-07T03:48:56;99366.28;;;8.07;63.79
40574;BME280;26283;49.020;8.644;2022-12-07T03:51:30;99360.28;;;8.05;63.81
40574;BME280;26283;49.020;8.644;2022-12-07T03:54:08;99359.25;;;8.06;63.80
40574;BME280;26283;49.020;8.644;2022-12-07T03:56:36;99359.06;;;8.07;63.81
40574;BME280;26283;49.020;8.644;2022-12-07T03:59:02;99364.41;;;8.07;63.79
40574;BME280;26283;49.020;8.644;2022-12-07T04:01:27;99368.13;;;8.06;63.80
40574;BME280;26283;49.020;8.644;2022-12-07T04:03:52;99361.72;;;8.07;63.81
40574;BME280;26283;49.020;8.644;2022-12-07T04:06:18;99361.72;;;8.07;63.80
40574;BME280;26283;49.020;8.644;2022-12-07T04:08:43;99363.59;;;8.07;63.79
40574;BME280;26283;49.020;8.644;2022-12-07T04:11:09;99359.06;;;8.07;63.80
40574;BME280;26283;49.020;8.644;2022-12-07T04:13:34;99358.22;;;8.07;63.79
40574;BME280;26283;49.020;8.644;2022-12-07T04:16:20;99348.31;;;8.07;63.78
40574;BME280;26283;49.020;8.644;2022-12-07T04:18:45;99356.56;;;8.06;63.77
40574;BME280;26283;49.020;8.644;2022-12-07T04:21:11;99364.41;;;8.07;63.80
40574;BME280;26283;49.020;8.644;2022-12-07T04:23:36;99359.44;;;8.04;63.80
40574;BME280;26283;49.020;8.644;2022-12-07T04:26:01;99363.78;;;8.05;63.81
40574;BME280;26283;49.020;8.644;2022-12-07T04:28:27;99363.78;;;8.05;63.81
40574;BME280;26283;49.020;8.644;2022-12-07T04:30:52;99361.09;;;8.05;63.80
40574;BME280;26283;49.020;8.644;2022-12-07T04:33:17;99359.44;;;8.04;63.80
40574;BME280;26283;49.020;8.644;2022-12-07T04:35:43;99356.75;;;8.04;63.81
40574;BME280;26283;49.020;8.644;2022-12-07T04:38:08;99354.06;;;8.04;63.82
40574;BME280;26283;49.020;8.644;2022-12-07T04:40:34;99352.22;;;8.05;63.81
40574;BME280;26283;49.020;8.644;2022-12-07T04:43:00;99355.53;;;8.07;63.81
40574;BME280;26283;49.020;8.644;2022-12-07T04:45:25;99352.41;;;8.03;63.80
40574;BME280;26283;49.020;8.644;2022-12-07T04:47:50;99348.72;;;8.04;63.80
40574;BME280;26283;49.020;8.644;2022-12-07T04:50:16;99359.25;;;8.06;63.81
40574;BME280;26283;49.020;8.644;2022-12-07T04:52:41;99350.38;;;8.05;63.80
40574;BME280;26283;49.020;8.644;2022-12-07T04:55:07;99349.72;;;8.03;63.79
40574;BME280;26283;49.020;8.644;2022-12-07T04:57:32;99355.09;;;8.03;63.80
40574;BME280;26283;49.020;8.644;2022-12-07T04:59:57;99356.75;;;8.04;63.80
40574;BME280;26283;49.020;8.644;2022-12-07T05:02:23;99354.06;;;8.04;63.81
40574;BME280;26283;49.020;8.644;2022-12-07T05:04:48;99348.91;;;8.03;63.82
40574;BME280;26283;49.020;8.644;2022-12-07T05:07:14;99353.25;;;8.04;63.82
40574;BME280;26283;49.020;8.644;2022-12-07T05:09:39;99362.13;;;8.04;63.83
40574;BME280;26283;49.020;8.644;2022-12-07T05:12:04;99355.31;;;8.02;63.85
40574;BME280;26283;49.020;8.644;2022-12-07T05:14:30;99350.75;;;8.02;63.85
40574;BME280;26283;49.020;8.644;2022-12-07T05:16:55;99352.41;;;8.03;63.86
40574;BME280;26283;49.020;8.644;2022-12-07T05:19:20;99350.75;;;8.02;63.86
40574;BME280;26283;49.020;8.644;2022-12-07T05:21:46;99352.41;;;8.03;63.85
40574;BME280;26283;49.020;8.644;2022-12-07T05:24:13;99347.06;;;8.03;63.85
40574;BME280;26283;49.020;8.644;2022-12-07T05:26:39;99344.56;;;8.02;63.85
40574;BME280;26283;49.020;8.644;2022-12-07T05:29:05;99349.94;;;8.02;63.86
40574;BME280;26283;49.020;8.644;2022-12-07T05:31:30;99351.59;;;8.03;63.85
40574;BME280;26283;49.020;8.644;2022-12-07T05:33:56;99355.09;;;8.03;63.84
40574;BME280;26283;49.020;8.644;2022-12-07T05:36:21;99357.97;;;8.02;63.85
40574;BME280;26283;49.020;8.644;2022-12-07T05:38:47;99352.63;;;8.02;63.85
40574;BME280;26283;49.020;8.644;2022-12-07T05:41:15;99344.56;;;8.02;63.86
40574;BME280;26283;49.020;8.644;2022-12-07T05:44:00;99344.56;;;8.02;63.87
40574;BME280;26283;49.020;8.644;2022-12-07T05:46:26;99343.75;;;8.01;63.86
40574;BME280;26283;49.020;8.644;2022-12-07T05:48:51;99345.63;;;8.01;63.86
40574;BME280;26283;49.020;8.644;2022-12-07T05:51:16;99347.47;;;8.00;63.88
40574;BME280;26283;49.020;8.644;2022-12-07T05:53:42;99353.69;;;8.01;63.89
40574;BME280;26283;49.020;8.644;2022-12-07T05:56:07;99356.56;;;7.99;63.89
40574;BME280;26283;49.020;8.644;2022-12-07T05:58:33;99349.34;;;8.00;63.89
40574;BME280;26283;49.020;8.644;2022-12-07T06:01:17;99343.13;;;7.99;63.88
40574;BME280;26283;49.020;8.644;2022-12-07T06:03:42;99347.47;;;8.00;63.87
40574;BME280;26283;49.020;8.644;2022-12-07T06:06:07;99346.66;;;8.00;63.90
40574;BME280;26283;49.020;8.644;2022-12-07T06:08:33;99346.66;;;8.00;63.91
40574;BME280;26283;49.020;8.644;2022-12-07T06:10:58;99341.28;;;8.00;63.91
40574;BME280;26283;49.020;8.644;2022-12-07T06:13:42;99341.28;;;8.00;63.91
40574;BME280;26283;49.020;8.644;2022-12-07T06:16:08;99337.97;;;7.98;63.89
40574;BME280;26283;49.020;8.644;2022-12-07T06:18:33;99341.28;;;8.00;63.91
40574;BME280;26283;49.020;8.644;2022-12-07T06:20:58;99334.25;;;7.99;63.92
40574;BME280;26283;49.020;8.644;2022-12-07T06:23:24;99345.81;;;7.99;63.93
40574;BME280;26283;49.020;8.644;2022-12-07T06:25:49;99353.87;;;7.99;63.92
40574;BME280;26283;49.020;8.644;2022-12-07T06:28:14;99357.59;;;7.98;63.93
40574;BME280;26283;49.020;8.644;2022-12-07T06:30:40;99349.53;;;7.98;63.94
40574;BME280;26283;49.020;8.644;2022-12-07T06:33:05;99350.34;;;7.99;63.95
40574;BME280;26283;49.020;8.644;2022-12-07T06:35:32;99344.16;;;7.98;63.95
40574;BME280;26283;49.020;8.644;2022-12-07T06:37:58;99345.37;;;7.96;63.95
40574;BME280;26283;49.020;8.644;2022-12-07T06:40:23;99354.06;;;7.98;63.96
40574;BME280;26283;49.020;8.644;2022-12-07T06:42:48;99351.38;;;7.98;63.97
40574;BME280;26283;49.020;8.644;2022-12-07T06:45:14;99352.41;;;7.97;63.96
40574;BME280;26283;49.020;8.644;2022-12-07T06:47:39;99354.25;;;7.96;63.97
40574;BME280;26283;49.020;8.644;2022-12-07T06:50:05;99346.41;;;7.95;63.95
40574;BME280;26283;49.020;8.644;2022-12-07T06:52:33;99353.25;;;7.97;63.97
40574;BME280;26283;49.020;8.644;2022-12-07T06:54:58;99362.13;;;7.98;63.97
40574;BME280;26283;49.020;8.644;2022-12-07T06:57:24;99354.91;;;7.98;63.96
40574;BME280;26283;49.020;8.644;2022-12-07T06:59:49;99356.75;;;7.98;63.95
40574;BME280;26283;49.020;8.644;2022-12-07T07:02:15;99339.19;;;7.95;63.94
40574;BME280;26283;49.020;8.644;2022-12-07T07:04:40;99355.94;;;7.97;63.97
40574;BME280;26283;49.020;8.644;2022-12-07T07:07:05;99354.25;;;7.96;63.97
40574;BME280;26283;49.020;8.644;2022-12-07T07:09:31;99349.72;;;7.97;63.97
40574;BME280;26283;49.020;8.644;2022-12-07T07:11:56;99344.56;;;7.95;63.97
40574;BME280;26283;49.020;8.644;2022-12-07T07:14:22;99354.25;;;7.96;63.98
40574;BME280;26283;49.020;8.644;2022-12-07T07:16:47;99347.03;;;7.97;63.98
40574;BME280;26283;49.020;8.644;2022-12-07T07:19:12;99356.13;;;7.96;64.00
40574;BME280;26283;49.020;8.644;2022-12-07T07:21:38;99356.94;;;7.96;63.99
40574;BME280;26283;49.020;8.644;2022-12-07T07:24:03;99359.63;;;7.96;63.98
40574;BME280;26283;49.020;8.644;2022-12-07T07:26:29;99351.59;;;7.96;64.00
40574;BME280;26283;49.020;8.644;2022-12-07T07:28:55;99352.41;;;7.97;64.00
40574;BME280;26283;49.020;8.644;2022-12-07T07:31:20;99349.94;;;7.95;64.01
40574;BME280;26283;49.020;8.644;2022-12-07T07:33:46;99357.97;;;7.95;64.01
40574;BME280;26283;49.020;8.644;2022-12-07T07:36:12;99362.31;;;7.96;64.00
40574;BME280;26283;49.020;8.644;2022-12-07T07:38:37;99353.44;;;7.96;64.01
40574;BME280;26283;49.020;8.644;2022-12-07T07:41:03;99353.44;;;7.96;64.00
40574;BME280;26283;49.020;8.644;2022-12-07T07:43:28;99352.59;;;7.95;63.99
40574;BME280;26283;49.020;8.644;2022-12-07T07:45:53;99368.72;;;7.95;63.99
40574;BME280;26283;49.020;8.644;2022-12-07T07:48:19;99359.00;;;7.94;63.99
40574;BME280;26283;49.020;8.644;2022-12-07T07:50:44;99362.50;;;7.95;63.99
40574;BME280;26283;49.020;8.644;2022-12-07T07:53:10;99363.34;;;7.95;64.00
40574;BME280;26283;49.020;8.644;2022-12-07T07:55:35;99364.38;;;7.94;64.02
40574;BME280;26283;49.020;8.644;2022-12-07T07:58:00;99369.72;;;7.94;64.02
40574;BME280;26283;49.020;8.644;2022-12-07T08:00:26;99368.91;;;7.94;64.03
40574;BME280;26283;49.020;8.644;2022-12-07T08:02:51;99373.44;;;7.93;64.01
40574;BME280;26283;49.020;8.644;2022-12-07T08:05:17;99372.41;;;7.94;63.99
40574;BME280;26283;49.020;8.644;2022-12-07T08:07:42;99378.81;;;7.93;63.99
40574;BME280;26283;49.020;8.644;2022-12-07T08:10:10;99372.41;;;7.94;63.98
40574;BME280;26283;49.020;8.644;2022-12-07T08:12:41;99376.13;;;7.93;63.99
40574;BME280;26283;49.020;8.644;2022-12-07T08:15:26;99381.50;;;7.93;64.00
40574;BME280;26283;49.020;8.644;2022-12-07T08:17:52;99386.66;;;7.95;64.00
40574;BME280;26283;49.020;8.644;2022-12-07T08:20:18;99389.53;;;7.93;64.02
40574;BME280;26283;49.020;8.644;2022-12-07T08:22:43;99382.53;;;7.92;64.02
40574;BME280;26283;49.020;8.644;2022-12-07T08:25:08;99384.19;;;7.93;64.02
40574;BME280;26283;49.020;8.644;2022-12-07T08:27:34;99395.75;;;7.94;64.01
40574;BME280;26283;49.020;8.644;2022-12-07T08:29:59;99388.72;;;7.93;64.01
40574;BME280;26283;49.020;8.644;2022-12-07T08:32:24;99394.91;;;7.93;64.02
40574;BME280;26283;49.020;8.644;2022-12-07T08:34:52;99394.91;;;7.93;64.02
40574;BME280;26283;49.020;8.644;2022-12-07T08:37:17;99400.28;;;7.93;64.03
40574;BME280;26283;49.020;8.644;2022-12-07T08:39:43;99395.94;;;7.92;64.03
40574;BME280;26283;49.020;8.644;2022-12-07T08:42:08;99395.94;;;7.92;64.02
40574;BME280;26283;49.020;8.644;2022-12-07T08:44:33;99400.47;;;7.91;64.03
40574;BME280;26283;49.020;8.644;2022-12-07T08:47:02;99394.28;;;7.91;64.04
40574;BME280;26283;49.020;8.644;2022-12-07T08:49:37;99398.63;;;7.92;64.04
40574;BME280;26283;49.020;8.644;2022-12-07T08:52:05;99396.97;;;7.91;64.05
40574;BME280;26283;49.020;8.644;2022-12-07T08:54:30;99403.16;;;7.91;64.05
40574;BME280;26283;49.020;8.644;2022-12-07T08:56:58;99401.50;;;7.90;64.06
40574;BME280;26283;49.020;8.644;2022-12-07T08:59:23;99406.87;;;7.90;64.07
40574;BME280;26283;49.020;8.644;2022-12-07T09:01:48;99402.31;;;7.91;64.07
40574;BME280;26283;49.020;8.644;2022-12-07T09:04:14;99402.53;;;7.89;64.09
40574;BME280;26283;49.020;8.644;2022-12-07T09:06:42;99406.03;;;7.90;64.10
40574;BME280;26283;49.020;8.644;2022-12-07T09:09:08;99406.03;;;7.90;64.11
40574;BME280;26283;49.020;8.644;2022-12-07T09:11:34;99404.38;;;7.89;64.11
40574;BME280;26283;49.020;8.644;2022-12-07T09:13:59;99406.03;;;7.90;64.10
40574;BME280;26283;49.020;8.644;2022-12-07T09:16:25;99398.00;;;7.90;64.11
40574;BME280;26283;49.020;8.644;2022-12-07T09:18:50;99404.38;;;7.89;64.11
40574;BME280;26283;49.020;8.644;2022-12-07T09:21:16;99401.69;;;7.89;64.10
40574;BME280;26283;49.020;8.644;2022-12-07T09:23:41;99408.72;;;7.90;64.10
40574;BME280;26283;49.020;8.644;2022-12-07T09:26:07;99409.75;;;7.89;64.12
40574;BME280;26283;49.020;8.644;2022-12-07T09:28:33;99416.78;;;7.90;64.11
40574;BME280;26283;49.020;8.644;2022-12-07T09:30:58;99409.75;;;7.89;64.12
40574;BME280;26283;49.020;8.644;2022-12-07T09:33:26;99410.56;;;7.89;64.12
40574;BME280;26283;49.020;8.644;2022-12-07T09:35:52;99410.56;;;7.89;64.12
40574;BME280;26283;49.020;8.644;2022-12-07T09:38:19;99414.28;;;7.88;64.11
40574;BME280;26283;49.020;8.644;2022-12-07T09:40:45;99416.78;;;7.90;64.07
40574;BME280;26283;49.020;8.644;2022-12-07T09:43:22;99415.75;;;7.91;64.06
40574;BME280;26283;49.020;8.644;2022-12-07T09:45:51;99411.59;;;7.88;64.09
40574;BME280;26283;49.020;8.644;2022-12-07T09:48:25;99412.44;;;7.89;64.09
40574;BME280;26283;49.020;8.644;2022-12-07T09:50:53;99413.25;;;7.89;64.08
40574;BME280;26283;49.020;8.644;2022-12-07T09:53:46;99410.56;;;7.89;64.08
40574;BME280;26283;49.020;8.644;2022-12-07T09:56:13;99404.38;;;7.89;64.11
40574;BME280;26283;49.020;8.644;2022-12-07T09:58:40;99393.66;;;7.89;64.08
40574;BME280;26283;49.020;8.644;2022-12-07T10:03:36;99396.34;;;7.89;64.09
40574;BME280;26283;49.020;8.644;2022-12-07T10:06:03;99396.34;;;7.89;64.10
40574;BME280;26283;49.020;8.644;2022-12-07T10:08:29;99396.53;;;7.87;64.10
40574;BME280;26283;49.020;8.644;2022-12-07T10:10:56;99393.66;;;7.89;64.10
40574;BME280;26283;49.020;8.644;2022-12-07T10:13:37;99400.66;;;7.90;64.09
40574;BME280;26283;49.020;8.644;2022-12-07T10:16:03;99395.31;;;7.90;64.09
40574;BME280;26283;49.020;8.644;2022-12-07T10:21:26;99393.66;;;7.89;64.10
40574;BME280;26283;49.020;8.644;2022-12-07T10:26:51;99381.25;;;7.88;64.11
40574;BME280;26283;49.020;8.644;2022-12-07T10:29:21;99384.78;;;7.88;64.12
40574;BME280;26283;49.020;8.644;2022-12-07T10:31:56;99382.28;;;7.87;64.11
40574;BME280;26283;49.020;8.644;2022-12-07T10:37:07;99378.56;;;7.88;64.13
40574;BME280;26283;49.020;8.644;2022-12-07T10:44:41;99371.34;;;7.88;64.12
40574;BME280;26283;49.020;8.644;2022-12-07T10:47:23;99367.84;;;7.88;64.13
40574;BME280;26283;49.020;8.644;2022-12-07T10:58:31;99358.13;;;7.87;64.15
40574;BME280;26283;49.020;8.644;2022-12-07T11:04:16;99355.44;;;7.87;64.14
40574;BME280;26283;49.020;8.644;2022-12-07T11:06:49;99350.09;;;7.87;64.11
40574;BME280;26283;49.020;8.644;2022-12-07T11:09:57;99349.06;;;7.88;64.12
40574;BME280;26283;49.020;8.644;2022-12-07T11:15:24;99339.34;;;7.87;64.13
40574;BME280;26283;49.020;8.644;2022-12-07T11:26:42;99325.75;;;7.88;64.16
40574;BME280;26283;49.020;8.644;2022-12-07T11:37:41;99323.06;;;7.88;64.14
40574;BME280;26283;49.020;8.644;2022-12-07T11:40:20;99321.41;;;7.87;64.14
40574;BME280;26283;49.020;8.644;2022-12-07T11:42:59;99332.13;;;7.87;64.16
40574;BME280;26283;49.020;8.644;2022-12-07T11:45:32;99324.91;;;7.88;64.14
40574;BME280;26283;49.020;8.644;2022-12-07T11:50:51;99322.84;;;7.90;64.14
40574;BME280;26283;49.020;8.644;2022-12-07T11:53:24;99309.44;;;7.90;64.12
40574;BME280;26283;49.020;8.644;2022-12-07T11:58:39;99307.59;;;7.90;64.12
40574;BME280;26283;49.020;8.644;2022-12-07T12:03:44;99296.03;;;7.90;64.09
40574;BME280;26283;49.020;8.644;2022-12-07T12:06:10;99297.06;;;7.89;64.11
40574;BME280;26283;49.020;8.644;2022-12-07T12:08:41;99294.16;;;7.90;64.10
40574;BME280;26283;49.020;8.644;2022-12-07T12:11:21;99296.03;;;7.90;64.10
40574;BME280;26283;49.020;8.644;2022-12-07T12:22:12;99283.25;;;7.92;64.05
40574;BME280;26283;49.020;8.644;2022-12-07T12:24:40;99279.72;;;7.91;64.04
40574;BME280;26283;49.020;8.644;2022-12-07T12:27:20;99269.81;;;7.92;64.05
40574;BME280;26283;49.020;8.644;2022-12-07T12:29:54;99273.53;;;7.91;64.08
40574;BME280;26283;49.020;8.644;2022-12-07T12:32:22;99272.50;;;7.92;64.05
40574;BME280;26283;49.020;8.644;2022-12-07T12:37:48;99264.47;;;7.92;64.06
40574;BME280;26283;49.020;8.644;2022-12-07T12:45:28;99272.50;;;7.92;64.03
40574;BME280;26283;49.020;8.644;2022-12-07T12:47:56;99266.12;;;7.93;64.05
40574;BME280;26283;49.020;8.644;2022-12-07T12:52:57;99266.94;;;7.94;64.02
40574;BME280;26283;49.020;8.644;2022-12-07T12:58:40;99257.03;;;7.94;64.00
40574;BME280;26283;49.020;8.644;2022-12-07T13:01:33;99269.63;;;7.94;64.00
40574;BME280;26283;49.020;8.644;2022-12-07T13:04:16;99260.75;;;7.93;63.98
40574;BME280;26283;49.020;8.644;2022-12-07T13:06:45;99258.06;;;7.93;63.97
40574;BME280;26283;49.020;8.644;2022-12-07T13:09:21;99257.03;;;7.94;63.97
40574;BME280;26283;49.020;8.644;2022-12-07T13:11:49;99256.00;;;7.95;64.00
40574;BME280;26283;49.020;8.644;2022-12-07T13:14:43;99250.62;;;7.95;63.98
40574;BME280;26283;49.020;8.644;2022-12-07T13:25:21;99249.81;;;7.95;63.98
40574;BME280;26283;49.020;8.644;2022-12-07T13:28:04;99238.25;;;7.94;64.00
40574;BME280;26283;49.020;8.644;2022-12-07T13:30:43;99233.50;;;7.96;63.95
40574;BME280;26283;49.020;8.644;2022-12-07T13:33:17;99230.84;;;7.96;63.95
40574;BME280;26283;49.020;8.644;2022-12-07T13:35:45;99233.50;;;7.96;63.95
40574;BME280;26283;49.020;8.644;2022-12-07T13:38:27;99235.38;;;7.96;63.94
40574;BME280;26283;49.020;8.644;2022-12-07T13:41:15;99229.19;;;7.95;63.95
40574;BME280;26283;49.020;8.644;2022-12-07T13:43:51;99226.28;;;7.97;63.94
40574;BME280;26283;49.020;8.644;2022-12-07T13:46:30;99228.78;;;7.98;63.91
40574;BME280;26283;49.020;8.644;2022-12-07T13:48:57;99228.78;;;7.98;63.91
40574;BME280;26283;49.020;8.644;2022-12-07T13:51:25;99227.31;;;7.96;63.92
40574;BME280;26283;49.020;8.644;2022-12-07T13:54:11;99224.44;;;7.97;63.93
40574;BME280;26283;49.020;8.644;2022-12-07T13:56:37;99232.50;;;7.97;63.94
40574;BME280;26283;49.020;8.644;2022-12-07T13:59:25;99229.59;;;7.99;63.89
40574;BME280;26283;49.020;8.644;2022-12-07T14:01:52;99226.09;;;7.98;63.92
40574;BME280;26283;49.020;8.644;2022-12-07T14:04:33;99227.75;;;7.99;63.88
40574;BME280;26283;49.020;8.644;2022-12-07T14:07:00;99224.22;;;7.99;63.88
40574;BME280;26283;49.020;8.644;2022-12-07T14:09:29;99225.06;;;7.99;63.85
40574;BME280;26283;49.020;8.644;2022-12-07T14:11:56;99217.84;;;8.00;63.86
40574;BME280;26283;49.020;8.644;2022-12-07T14:14:31;99222.38;;;7.99;63.84
40574;BME280;26283;49.020;8.644;2022-12-07T14:17:09;99227.75;;;7.99;63.83
40574;BME280;26283;49.020;8.644;2022-12-07T14:19:59;99235.59;;;8.01;63.85
40574;BME280;26283;49.020;8.644;2022-12-07T14:22:37;99224.03;;;8.00;63.85
40574;BME280;26283;49.020;8.644;2022-12-07T14:25:23;99227.75;;;7.99;63.80
40574;BME280;26283;49.020;8.644;2022-12-07T14:27:56;99224.03;;;8.00;63.82
40574;BME280;26283;49.020;8.644;2022-12-07T14:30:24;99219.69;;;7.99;63.80
40574;BME280;26283;49.020;8.644;2022-12-07T14:33:01;99224.88;;;8.01;63.82
40574;BME280;26283;49.020;8.644;2022-12-07T14:35:27;99227.53;;;8.01;63.82
40574;BME280;26283;49.020;8.644;2022-12-07T14:37:53;99224.88;;;8.01;63.80
40574;BME280;26283;49.020;8.644;2022-12-07T14:40:25;99220.28;;;8.01;63.79
40574;BME280;26283;49.020;8.644;2022-12-07T14:42:57;99221.34;;;8.00;63.81
40574;BME280;26283;49.020;8.644;2022-12-07T14:45:23;99224.03;;;8.00;63.80
40574;BME280;26283;49.020;8.644;2022-12-07T14:47:49;99223.81;;;8.02;63.79
40574;BME280;26283;49.020;8.644;2022-12-07T14:50:17;99222.97;;;8.01;63.79
40574;BME280;26283;49.020;8.644;2022-12-07T14:52:46;99220.28;;;8.01;63.77
40574;BME280;26283;49.020;8.644;2022-12-07T14:55:15;99230.00;;;8.02;63.78
40574;BME280;26283;49.020;8.644;2022-12-07T14:57:42;99232.69;;;8.02;63.77
40574;BME280;26283;49.020;8.644;2022-12-07T15:00:13;99221.13;;;8.02;63.75
40574;BME280;26283;49.020;8.644;2022-12-07T15:02:39;99226.28;;;8.03;63.75
40574;BME280;26283;49.020;8.644;2022-12-07T15:05:04;99222.78;;;8.03;63.73
40574;BME280;26283;49.020;8.644;2022-12-07T15:07:30;99226.47;;;8.02;63.74
40574;BME280;26283;49.020;8.644;2022-12-07T15:09:55;99235.38;;;8.02;63.75
40574;BME280;26283;49.020;8.644;2022-12-07T15:12:20;99223.59;;;8.03;63.75